sensor_id;sensor_type;location;lat;lon;timestamp;pressure;altitude;pressure_sealevel;temperature
54746;BMP180;40640;48.130;11.356;2023-03-29T00:00:59;96086.00;;;5.70
54746;BMP180;40640;48.130;11.356;2023-03-29T00:05:04;96087.00;;;6.20
54746;BMP180;40640;48.130;11.356;2023-03-29T00:09:07;96106.00;;;6.00
54746;BMP180;40640;48.130;11.356;2023-03-29T00:13:11;96113.00;;;5.90
54746;BMP180;40640;48.130;11.356;2023-03-29T00:17:15;96103.00;;;6.00
54746;BMP180;40640;48.130;11.356;2023-03-29T00:21:18;96098.00;;;6.00
54746;BMP180;40640;48.130;11.356;2023-03-29T00:25:21;96109.00;;;6.10
54746;BMP180;40640;48.130;11.356;2023-03-29T00:29:24;96105.00;;;6.30
54746;BMP180;40640;48.130;11.356;2023-03-29T00:33:28;96127.00;;;6.40
54746;BMP180;40640;48.130;11.356;2023-03-29T00:37:31;96122.00;;;6.60
54746;BMP180;40640;48.130;11.356;2023-03-29T00:41:34;96136.00;;;6.40
54746;BMP180;40640;48.130;11.356;2023-03-29T00:45:37;96106.00;;;6.50
54746;BMP180;40640;48.130;11.356;2023-03-29T00:49:41;96118.00;;;6.40
54746;BMP180;40640;48.130;11.356;2023-03-29T00:53:48;96113.00;;;6.50
54746;BMP180;40640;48.130;11.356;2023-03-29T00:57:52;96115.00;;;6.20
54746;BMP180;40640;48.130;11.356;2023-03-29T01:01:58;96098.00;;;6.20
54746;BMP180;40640;48.130;11.356;2023-03-29T01:06:06;96082.00;;;6.30
54746;BMP180;40640;48.130;11.356;2023-03-29T01:10:13;96075.00;;;6.30
54746;BMP180;40640;48.130;11.356;2023-03-29T01:14:20;96066.00;;;6.20
54746;BMP180;40640;48.130;11.356;2023-03-29T01:18:25;96062.00;;;6.00
54746;BMP180;40640;48.130;11.356;2023-03-29T01:22:34;96046.00;;;5.80
54746;BMP180;40640;48.130;11.356;2023-03-29T01:26:49;96036.00;;;6.10
54746;BMP180;40640;48.130;11.356;2023-03-29T01:30:58;96045.00;;;5.70
54746;BMP180;40640;48.130;11.356;2023-03-29T01:35:08;96028.00;;;5.80
54746;BMP180;40640;48.130;11.356;2023-03-29T01:39:15;96001.00;;;5.70
54746;BMP180;40640;48.130;11.356;2023-03-29T01:43:23;95989.00;;;5.70
54746;BMP180;40640;48.130;11.356;2023-03-29T01:47:37;95981.00;;;5.50
54746;BMP180;40640;48.130;11.356;2023-03-29T01:51:49;95999.00;;;5.70
54746;BMP180;40640;48.130;11.356;2023-03-29T01:55:54;95974.00;;;5.50
54746;BMP180;40640;48.130;11.356;2023-03-29T01:59:59;95961.00;;;5.50
54746;BMP180;40640;48.130;11.356;2023-03-29T02:04:15;95959.00;;;5.50
54746;BMP180;40640;48.130;11.356;2023-03-29T02:08:20;95961.00;;;5.50
54746;BMP180;40640;48.130;11.356;2023-03-29T02:12:23;95962.00;;;5.40
54746;BMP180;40640;48.130;11.356;2023-03-29T02:16:27;95954.00;;;5.40
54746;BMP180;40640;48.130;11.356;2023-03-29T02:20:34;95948.00;;;5.30
54746;BMP180;40640;48.130;11.356;2023-03-29T02:24:40;95937.00;;;5.40
54746;BMP180;40640;48.130;11.356;2023-03-29T02:28:43;95924.00;;;5.20
54746;BMP180;40640;48.130;11.356;2023-03-29T02:32:51;95927.00;;;5.10
54746;BMP180;40640;48.130;11.356;2023-03-29T02:37:00;95929.00;;;5.20
54746;BMP180;40640;48.130;11.356;2023-03-29T02:41:05;95915.00;;;5.20
54746;BMP180;40640;48.130;11.356;2023-03-29T02:45:11;95923.00;;;5.10
54746;BMP180;40640;48.130;11.356;2023-03-29T02:49:16;95908.00;;;5.10
54746;BMP180;40640;48.130;11.356;2023-03-29T02:53:24;95894.00;;;5.10
54746;BMP180;40640;48.130;11.356;2023-03-29T02:57:28;95885.00;;;5.20
54746;BMP180;40640;48.130;11.356;2023-03-29T03:01:32;95901.00;;;5.20
54746;BMP180;40640;48.130;11.356;2023-03-29T03:05:37;95914.00;;;5.30
54746;BMP180;40640;48.130;11.356;2023-03-29T03:09:42;95903.00;;;5.30
54746;BMP180;40640;48.130;11.356;2023-03-29T03:13:45;95910.00;;;5.40
54746;BMP180;40640;48.130;11.356;2023-03-29T03:17:47;95898.00;;;5.20
54746;BMP180;40640;48.130;11.356;2023-03-29T03:21:50;95881.00;;;5.20
54746;BMP180;40640;48.130;11.356;2023-03-29T03:25:56;95866.00;;;5.20
54746;BMP180;40640;48.130;11.356;2023-03-29T03:29:59;95859.00;;;5.00
54746;BMP180;40640;48.130;11.356;2023-03-29T03:34:36;95862.00;;;5.10
54746;BMP180;40640;48.130;11.356;2023-03-29T03:38:39;95853.00;;;4.90
54746;BMP180;40640;48.130;11.356;2023-03-29T03:42:45;95841.00;;;5.00
54746;BMP180;40640;48.130;11.356;2023-03-29T03:46:49;95836.00;;;5.10
54746;BMP180;40640;48.130;11.356;2023-03-29T03:50:53;95844.00;;;5.10
54746;BMP180;40640;48.130;11.356;2023-03-29T03:54:58;95831.00;;;5.00
54746;BMP180;40640;48.130;11.356;2023-03-29T03:59:21;95806.00;;;5.00
54746;BMP180;40640;48.130;11.356;2023-03-29T04:03:33;95811.00;;;5.30
54746;BMP180;40640;48.130;11.356;2023-03-29T04:07:36;95810.00;;;5.40
54746;BMP180;40640;48.130;11.356;2023-03-29T04:12:00;95813.00;;;5.60
54746;BMP180;40640;48.130;11.356;2023-03-29T04:16:06;95806.00;;;5.90
54746;BMP180;40640;48.130;11.356;2023-03-29T04:20:09;95815.00;;;6.00
54746;BMP180;40640;48.130;11.356;2023-03-29T04:24:15;95807.00;;;6.30
54746;BMP180;40640;48.130;11.356;2023-03-29T04:28:29;95807.00;;;6.50
54746;BMP180;40640;48.130;11.356;2023-03-29T04:32:41;95794.00;;;6.50
54746;BMP180;40640;48.130;11.356;2023-03-29T04:36:45;95804.00;;;6.50
54746;BMP180;40640;48.130;11.356;2023-03-29T04:40:54;95812.00;;;6.60
54746;BMP180;40640;48.130;11.356;2023-03-29T04:45:29;95802.00;;;6.70
54746;BMP180;40640;48.130;11.356;2023-03-29T04:49:43;95796.00;;;6.60
54746;BMP180;40640;48.130;11.356;2023-03-29T04:53:53;95789.00;;;6.70
54746;BMP180;40640;48.130;11.356;2023-03-29T04:57:57;95784.00;;;6.60
54746;BMP180;40640;48.130;11.356;2023-03-29T05:02:07;95795.00;;;6.70
54746;BMP180;40640;48.130;11.356;2023-03-29T05:06:15;95792.00;;;6.70
54746;BMP180;40640;48.130;11.356;2023-03-29T05:10:18;95805.00;;;6.90
54746;BMP180;40640;48.130;11.356;2023-03-29T05:14:21;95807.00;;;6.90
54746;BMP180;40640;48.130;11.356;2023-03-29T05:18:24;95792.00;;;6.70
54746;BMP180;40640;48.130;11.356;2023-03-29T05:22:28;95797.00;;;6.90
54746;BMP180;40640;48.130;11.356;2023-03-29T05:26:32;95796.00;;;6.90
54746;BMP180;40640;48.130;11.356;2023-03-29T05:30:35;95795.00;;;7.00
54746;BMP180;40640;48.130;11.356;2023-03-29T05:34:47;95800.00;;;7.00
54746;BMP180;40640;48.130;11.356;2023-03-29T05:38:51;95795.00;;;7.00
54746;BMP180;40640;48.130;11.356;2023-03-29T05:42:57;95808.00;;;7.00
54746;BMP180;40640;48.130;11.356;2023-03-29T05:47:02;95796.00;;;6.90
54746;BMP180;40640;48.130;11.356;2023-03-29T05:51:06;95806.00;;;7.00
54746;BMP180;40640;48.130;11.356;2023-03-29T05:55:11;95807.00;;;7.00
54746;BMP180;40640;48.130;11.356;2023-03-29T05:59:14;95814.00;;;6.90
54746;BMP180;40640;48.130;11.356;2023-03-29T06:03:20;95810.00;;;7.00
54746;BMP180;40640;48.130;11.356;2023-03-29T06:07:28;95812.00;;;7.10
54746;BMP180;40640;48.130;11.356;2023-03-29T06:11:52;95816.00;;;7.00
54746;BMP180;40640;48.130;11.356;2023-03-29T06:16:17;95812.00;;;7.00
54746;BMP180;40640;48.130;11.356;2023-03-29T06:20:20;95816.00;;;7.00
54746;BMP180;40640;48.130;11.356;2023-03-29T06:24:28;95810.00;;;7.10
54746;BMP180;40640;48.130;11.356;2023-03-29T06:28:38;95824.00;;;7.20
54746;BMP180;40640;48.130;11.356;2023-03-29T06:32:42;95833.00;;;7.30
54746;BMP180;40640;48.130;11.356;2023-03-29T06:36:59;95834.00;;;7.50
54746;BMP180;40640;48.130;11.356;2023-03-29T06:41:03;95835.00;;;7.70
54746;BMP180;40640;48.130;11.356;2023-03-29T06:45:34;95840.00;;;7.90
54746;BMP180;40640;48.130;11.356;2023-03-29T06:49:42;95831.00;;;8.00
54746;BMP180;40640;48.130;11.356;2023-03-29T06:54:00;95835.00;;;8.10
54746;BMP180;40640;48.130;11.356;2023-03-29T06:58:04;95839.00;;;8.20
54746;BMP180;40640;48.130;11.356;2023-03-29T07:02:11;95842.00;;;8.40
54746;BMP180;40640;48.130;11.356;2023-03-29T07:06:40;95832.00;;;8.40
54746;BMP180;40640;48.130;11.356;2023-03-29T07:10:50;95839.00;;;8.50
54746;BMP180;40640;48.130;11.356;2023-03-29T07:15:14;95841.00;;;8.50
54746;BMP180;40640;48.130;11.356;2023-03-29T07:19:37;95836.00;;;8.50
54746;BMP180;40640;48.130;11.356;2023-03-29T07:24:00;95858.00;;;8.60
54746;BMP180;40640;48.130;11.356;2023-03-29T07:28:05;95855.00;;;8.70
54746;BMP180;40640;48.130;11.356;2023-03-29T07:32:08;95859.00;;;8.80
54746;BMP180;40640;48.130;11.356;2023-03-29T07:36:17;95865.00;;;8.80
54746;BMP180;40640;48.130;11.356;2023-03-29T07:40:22;95856.00;;;8.80
54746;BMP180;40640;48.130;11.356;2023-03-29T07:44:31;95863.00;;;8.80
54746;BMP180;40640;48.130;11.356;2023-03-29T07:48:34;95873.00;;;8.80
54746;BMP180;40640;48.130;11.356;2023-03-29T07:52:44;95875.00;;;8.90
54746;BMP180;40640;48.130;11.356;2023-03-29T07:56:49;95879.00;;;9.00
54746;BMP180;40640;48.130;11.356;2023-03-29T08:00:57;95885.00;;;8.90
54746;BMP180;40640;48.130;11.356;2023-03-29T08:05:21;95875.00;;;8.90
54746;BMP180;40640;48.130;11.356;2023-03-29T08:09:45;95873.00;;;8.90
54746;BMP180;40640;48.130;11.356;2023-03-29T08:13:49;95884.00;;;8.90
54746;BMP180;40640;48.130;11.356;2023-03-29T08:17:55;95886.00;;;8.90
54746;BMP180;40640;48.130;11.356;2023-03-29T08:21:59;95882.00;;;8.80
54746;BMP180;40640;48.130;11.356;2023-03-29T08:26:15;95874.00;;;8.90
54746;BMP180;40640;48.130;11.356;2023-03-29T08:30:20;95882.00;;;9.00
54746;BMP180;40640;48.130;11.356;2023-03-29T08:34:24;95885.00;;;9.10
54746;BMP180;40640;48.130;11.356;2023-03-29T08:38:50;95878.00;;;9.30
54746;BMP180;40640;48.130;11.356;2023-03-29T08:43:20;95872.00;;;9.70
54746;BMP180;40640;48.130;11.356;2023-03-29T08:47:47;95863.00;;;10.50
54746;BMP180;40640;48.130;11.356;2023-03-29T08:51:56;95855.00;;;10.40
54746;BMP180;40640;48.130;11.356;2023-03-29T08:56:00;95847.00;;;10.30
54746;BMP180;40640;48.130;11.356;2023-03-29T09:00:34;95858.00;;;10.20
54746;BMP180;40640;48.130;11.356;2023-03-29T09:04:39;95857.00;;;10.20
54746;BMP180;40640;48.130;11.356;2023-03-29T09:08:59;95870.00;;;10.20
54746;BMP180;40640;48.130;11.356;2023-03-29T09:13:14;95871.00;;;10.30
54746;BMP180;40640;48.130;11.356;2023-03-29T09:17:29;95874.00;;;10.30
54746;BMP180;40640;48.130;11.356;2023-03-29T09:21:43;95864.00;;;10.40
54746;BMP180;40640;48.130;11.356;2023-03-29T09:25:54;95871.00;;;10.60
54746;BMP180;40640;48.130;11.356;2023-03-29T09:30:13;95867.00;;;10.70
54746;BMP180;40640;48.130;11.356;2023-03-29T09:34:30;95863.00;;;10.70
54746;BMP180;40640;48.130;11.356;2023-03-29T09:38:46;95863.00;;;10.80
54746;BMP180;40640;48.130;11.356;2023-03-29T09:42:53;95877.00;;;11.20
54746;BMP180;40640;48.130;11.356;2023-03-29T09:47:00;95872.00;;;11.80
54746;BMP180;40640;48.130;11.356;2023-03-29T09:51:09;95872.00;;;11.80
54746;BMP180;40640;48.130;11.356;2023-03-29T09:55:15;95861.00;;;11.70
54746;BMP180;40640;48.130;11.356;2023-03-29T09:59:27;95854.00;;;11.70
54746;BMP180;40640;48.130;11.356;2023-03-29T10:03:31;95853.00;;;11.70
54746;BMP180;40640;48.130;11.356;2023-03-29T10:07:50;95847.00;;;11.60
54746;BMP180;40640;48.130;11.356;2023-03-29T10:11:54;95839.00;;;11.70
54746;BMP180;40640;48.130;11.356;2023-03-29T10:16:02;95846.00;;;11.70
54746;BMP180;40640;48.130;11.356;2023-03-29T10:20:09;95854.00;;;11.90
54746;BMP180;40640;48.130;11.356;2023-03-29T10:24:18;95845.00;;;11.90
54746;BMP180;40640;48.130;11.356;2023-03-29T10:28:22;95838.00;;;12.20
54746;BMP180;40640;48.130;11.356;2023-03-29T10:32:30;95834.00;;;12.40
54746;BMP180;40640;48.130;11.356;2023-03-29T10:36:34;95834.00;;;13.20
54746;BMP180;40640;48.130;11.356;2023-03-29T10:40:44;95826.00;;;13.50
54746;BMP180;40640;48.130;11.356;2023-03-29T10:44:53;95827.00;;;13.40
54746;BMP180;40640;48.130;11.356;2023-03-29T10:48:57;95825.00;;;13.30
54746;BMP180;40640;48.130;11.356;2023-03-29T10:53:01;95830.00;;;13.30
54746;BMP180;40640;48.130;11.356;2023-03-29T10:57:07;95808.00;;;13.10
54746;BMP180;40640;48.130;11.356;2023-03-29T11:01:17;95812.00;;;13.50
54746;BMP180;40640;48.130;11.356;2023-03-29T11:05:29;95806.00;;;13.80
54746;BMP180;40640;48.130;11.356;2023-03-29T11:09:41;95832.00;;;14.10
54746;BMP180;40640;48.130;11.356;2023-03-29T11:13:53;95825.00;;;14.40
54746;BMP180;40640;48.130;11.356;2023-03-29T11:18:09;95816.00;;;14.40
54746;BMP180;40640;48.130;11.356;2023-03-29T11:22:22;95822.00;;;14.30
54746;BMP180;40640;48.130;11.356;2023-03-29T11:26:31;95827.00;;;14.60
54746;BMP180;40640;48.130;11.356;2023-03-29T11:30:42;95830.00;;;14.40
54746;BMP180;40640;48.130;11.356;2023-03-29T11:34:57;95834.00;;;14.30
54746;BMP180;40640;48.130;11.356;2023-03-29T11:39:06;95825.00;;;14.00
54746;BMP180;40640;48.130;11.356;2023-03-29T11:43:18;95839.00;;;14.20
54746;BMP180;40640;48.130;11.356;2023-03-29T11:47:26;95833.00;;;14.20
54746;BMP180;40640;48.130;11.356;2023-03-29T11:51:32;95822.00;;;14.30
54746;BMP180;40640;48.130;11.356;2023-03-29T11:55:38;95826.00;;;14.50
54746;BMP180;40640;48.130;11.356;2023-03-29T11:59:50;95807.00;;;14.80
54746;BMP180;40640;48.130;11.356;2023-03-29T12:03:59;95820.00;;;15.00
54746;BMP180;40640;48.130;11.356;2023-03-29T12:08:08;95814.00;;;15.00
54746;BMP180;40640;48.130;11.356;2023-03-29T12:12:17;95818.00;;;15.20
54746;BMP180;40640;48.130;11.356;2023-03-29T12:16:26;95799.00;;;14.90
54746;BMP180;40640;48.130;11.356;2023-03-29T12:20:33;95806.00;;;14.60
54746;BMP180;40640;48.130;11.356;2023-03-29T12:24:39;95804.00;;;14.70
54746;BMP180;40640;48.130;11.356;2023-03-29T12:28:57;95788.00;;;14.70
54746;BMP180;40640;48.130;11.356;2023-03-29T12:33:18;95794.00;;;15.00
54746;BMP180;40640;48.130;11.356;2023-03-29T12:37:56;95790.00;;;15.20
54746;BMP180;40640;48.130;11.356;2023-03-29T12:42:21;95788.00;;;15.10
54746;BMP180;40640;48.130;11.356;2023-03-29T12:46:59;95791.00;;;15.20
54746;BMP180;40640;48.130;11.356;2023-03-29T12:51:05;95790.00;;;15.20
54746;BMP180;40640;48.130;11.356;2023-03-29T12:55:22;95780.00;;;15.70
54746;BMP180;40640;48.130;11.356;2023-03-29T12:59:36;95779.00;;;17.20
54746;BMP180;40640;48.130;11.356;2023-03-29T13:03:45;95779.00;;;18.40
54746;BMP180;40640;48.130;11.356;2023-03-29T13:07:49;95789.00;;;19.30
54746;BMP180;40640;48.130;11.356;2023-03-29T13:11:56;95783.00;;;19.70
54746;BMP180;40640;48.130;11.356;2023-03-29T13:16:11;95781.00;;;18.30
54746;BMP180;40640;48.130;11.356;2023-03-29T13:20:33;95772.00;;;17.60
54746;BMP180;40640;48.130;11.356;2023-03-29T13:25:01;95778.00;;;17.30
54746;BMP180;40640;48.130;11.356;2023-03-29T13:29:32;95763.00;;;17.00
54746;BMP180;40640;48.130;11.356;2023-03-29T13:33:51;95760.00;;;16.80
54746;BMP180;40640;48.130;11.356;2023-03-29T13:38:02;95766.00;;;16.80
54746;BMP180;40640;48.130;11.356;2023-03-29T13:42:18;95765.00;;;16.10
54746;BMP180;40640;48.130;11.356;2023-03-29T13:46:34;95767.00;;;15.70
54746;BMP180;40640;48.130;11.356;2023-03-29T13:50:39;95759.00;;;15.40
54746;BMP180;40640;48.130;11.356;2023-03-29T13:54:56;95756.00;;;15.20
54746;BMP180;40640;48.130;11.356;2023-03-29T13:59:04;95755.00;;;15.00
54746;BMP180;40640;48.130;11.356;2023-03-29T14:03:14;95756.00;;;15.00
54746;BMP180;40640;48.130;11.356;2023-03-29T14:07:19;95742.00;;;14.90
54746;BMP180;40640;48.130;11.356;2023-03-29T14:11:28;95738.00;;;15.00
54746;BMP180;40640;48.130;11.356;2023-03-29T14:15:41;95735.00;;;15.20
54746;BMP180;40640;48.130;11.356;2023-03-29T14:19:46;95748.00;;;15.70
54746;BMP180;40640;48.130;11.356;2023-03-29T14:23:53;95741.00;;;15.90
54746;BMP180;40640;48.130;11.356;2023-03-29T14:27:56;95744.00;;;15.90
54746;BMP180;40640;48.130;11.356;2023-03-29T14:32:08;95747.00;;;15.80
54746;BMP180;40640;48.130;11.356;2023-03-29T14:36:15;95749.00;;;15.50
54746;BMP180;40640;48.130;11.356;2023-03-29T14:40:19;95737.00;;;15.40
54746;BMP180;40640;48.130;11.356;2023-03-29T14:44:24;95737.00;;;15.30
54746;BMP180;40640;48.130;11.356;2023-03-29T14:48:27;95743.00;;;15.20
54746;BMP180;40640;48.130;11.356;2023-03-29T14:52:35;95751.00;;;15.00
54746;BMP180;40640;48.130;11.356;2023-03-29T14:56:38;95761.00;;;14.80
54746;BMP180;40640;48.130;11.356;2023-03-29T15:00:41;95763.00;;;14.60
54746;BMP180;40640;48.130;11.356;2023-03-29T15:04:53;95775.00;;;14.40
54746;BMP180;40640;48.130;11.356;2023-03-29T15:08:58;95775.00;;;14.30
54746;BMP180;40640;48.130;11.356;2023-03-29T15:13:14;95767.00;;;14.10
54746;BMP180;40640;48.130;11.356;2023-03-29T15:17:27;95767.00;;;13.80
54746;BMP180;40640;48.130;11.356;2023-03-29T15:21:51;95775.00;;;13.60
54746;BMP180;40640;48.130;11.356;2023-03-29T15:25:57;95748.00;;;13.70
54746;BMP180;40640;48.130;11.356;2023-03-29T15:30:00;95755.00;;;13.50
54746;BMP180;40640;48.130;11.356;2023-03-29T15:34:05;95751.00;;;13.50
54746;BMP180;40640;48.130;11.356;2023-03-29T15:38:11;95741.00;;;13.40
54746;BMP180;40640;48.130;11.356;2023-03-29T15:42:15;95731.00;;;13.40
54746;BMP180;40640;48.130;11.356;2023-03-29T15:46:18;95735.00;;;13.40
54746;BMP180;40640;48.130;11.356;2023-03-29T15:50:21;95727.00;;;13.30
54746;BMP180;40640;48.130;11.356;2023-03-29T15:54:25;95717.00;;;13.30
54746;BMP180;40640;48.130;11.356;2023-03-29T15:58:31;95721.00;;;13.30
54746;BMP180;40640;48.130;11.356;2023-03-29T16:02:35;95727.00;;;13.10
54746;BMP180;40640;48.130;11.356;2023-03-29T16:06:39;95719.00;;;13.00
54746;BMP180;40640;48.130;11.356;2023-03-29T16:10:42;95727.00;;;12.90
54746;BMP180;40640;48.130;11.356;2023-03-29T16:14:46;95726.00;;;12.80
54746;BMP180;40640;48.130;11.356;2023-03-29T16:18:49;95729.00;;;12.90
54746;BMP180;40640;48.130;11.356;2023-03-29T16:22:52;95718.00;;;12.80
54746;BMP180;40640;48.130;11.356;2023-03-29T16:26:55;95710.00;;;12.70
54746;BMP180;40640;48.130;11.356;2023-03-29T16:31:00;95702.00;;;12.60
54746;BMP180;40640;48.130;11.356;2023-03-29T16:35:03;95700.00;;;12.50
54746;BMP180;40640;48.130;11.356;2023-03-29T16:39:06;95708.00;;;12.50
54746;BMP180;40640;48.130;11.356;2023-03-29T16:43:13;95707.00;;;12.40
54746;BMP180;40640;48.130;11.356;2023-03-29T16:47:17;95693.00;;;12.30
54746;BMP180;40640;48.130;11.356;2023-03-29T16:51:20;95688.00;;;12.10
54746;BMP180;40640;48.130;11.356;2023-03-29T16:55:23;95687.00;;;12.10
54746;BMP180;40640;48.130;11.356;2023-03-29T16:59:26;95680.00;;;12.10
54746;BMP180;40640;48.130;11.356;2023-03-29T17:03:30;95693.00;;;12.10
54746;BMP180;40640;48.130;11.356;2023-03-29T17:07:33;95702.00;;;12.10
54746;BMP180;40640;48.130;11.356;2023-03-29T17:11:36;95703.00;;;12.20
54746;BMP180;40640;48.130;11.356;2023-03-29T17:15:39;95687.00;;;12.10
54746;BMP180;40640;48.130;11.356;2023-03-29T17:19:43;95679.00;;;12.00
54746;BMP180;40640;48.130;11.356;2023-03-29T17:23:46;95679.00;;;11.90
54746;BMP180;40640;48.130;11.356;2023-03-29T17:27:49;95692.00;;;11.80
54746;BMP180;40640;48.130;11.356;2023-03-29T17:31:53;95686.00;;;11.90
54746;BMP180;40640;48.130;11.356;2023-03-29T17:35:57;95690.00;;;11.90
54746;BMP180;40640;48.130;11.356;2023-03-29T17:40:01;95689.00;;;11.80
54746;BMP180;40640;48.130;11.356;2023-03-29T17:44:10;95692.00;;;11.80
54746;BMP180;40640;48.130;11.356;2023-03-29T17:48:13;95699.00;;;11.70
54746;BMP180;40640;48.130;11.356;2023-03-29T17:52:18;95693.00;;;11.70
54746;BMP180;40640;48.130;11.356;2023-03-29T17:56:20;95688.00;;;11.50
54746;BMP180;40640;48.130;11.356;2023-03-29T18:00:24;95685.00;;;11.40
54746;BMP180;40640;48.130;11.356;2023-03-29T18:04:27;95692.00;;;11.40
54746;BMP180;40640;48.130;11.356;2023-03-29T18:08:31;95686.00;;;11.40
54746;BMP180;40640;48.130;11.356;2023-03-29T18:12:34;95684.00;;;11.30
54746;BMP180;40640;48.130;11.356;2023-03-29T18:16:37;95689.00;;;11.40
54746;BMP180;40640;48.130;11.356;2023-03-29T18:20:43;95687.00;;;11.30
54746;BMP180;40640;48.130;11.356;2023-03-29T18:24:47;95691.00;;;11.30
54746;BMP180;40640;48.130;11.356;2023-03-29T18:28:51;95687.00;;;11.20
54746;BMP180;40640;48.130;11.356;2023-03-29T18:32:54;95687.00;;;11.10
54746;BMP180;40640;48.130;11.356;2023-03-29T18:36:57;95695.00;;;11.20
54746;BMP180;40640;48.130;11.356;2023-03-29T18:41:03;95684.00;;;11.10
54746;BMP180;40640;48.130;11.356;2023-03-29T18:45:07;95689.00;;;11.10
54746;BMP180;40640;48.130;11.356;2023-03-29T18:49:11;95698.00;;;11.10
54746;BMP180;40640;48.130;11.356;2023-03-29T18:53:14;95700.00;;;11.20
54746;BMP180;40640;48.130;11.356;2023-03-29T18:57:18;95702.00;;;11.10
54746;BMP180;40640;48.130;11.356;2023-03-29T19:01:21;95703.00;;;11.10
54746;BMP180;40640;48.130;11.356;2023-03-29T19:05:24;95684.00;;;11.00
54746;BMP180;40640;48.130;11.356;2023-03-29T19:09:27;95691.00;;;10.90
54746;BMP180;40640;48.130;11.356;2023-03-29T19:13:32;95674.00;;;10.90
54746;BMP180;40640;48.130;11.356;2023-03-29T19:17:34;95673.00;;;10.90
54746;BMP180;40640;48.130;11.356;2023-03-29T19:21:37;95673.00;;;10.90
54746;BMP180;40640;48.130;11.356;2023-03-29T19:25:41;95679.00;;;10.90
54746;BMP180;40640;48.130;11.356;2023-03-29T19:29:46;95678.00;;;10.90
54746;BMP180;40640;48.130;11.356;2023-03-29T19:33:49;95675.00;;;11.00
54746;BMP180;40640;48.130;11.356;2023-03-29T19:37:52;95668.00;;;10.90
54746;BMP180;40640;48.130;11.356;2023-03-29T19:41:55;95678.00;;;10.90
54746;BMP180;40640;48.130;11.356;2023-03-29T19:46:04;95683.00;;;11.00
54746;BMP180;40640;48.130;11.356;2023-03-29T19:50:09;95689.00;;;11.00
54746;BMP180;40640;48.130;11.356;2023-03-29T19:54:12;95692.00;;;11.10
54746;BMP180;40640;48.130;11.356;2023-03-29T19:58:17;95697.00;;;11.30
54746;BMP180;40640;48.130;11.356;2023-03-29T20:02:22;95685.00;;;11.70
54746;BMP180;40640;48.130;11.356;2023-03-29T20:06:25;95689.00;;;11.70
54746;BMP180;40640;48.130;11.356;2023-03-29T20:10:27;95678.00;;;11.70
54746;BMP180;40640;48.130;11.356;2023-03-29T20:14:30;95666.00;;;11.80
54746;BMP180;40640;48.130;11.356;2023-03-29T20:18:36;95660.00;;;11.70
54746;BMP180;40640;48.130;11.356;2023-03-29T20:22:42;95658.00;;;11.70
54746;BMP180;40640;48.130;11.356;2023-03-29T20:26:45;95661.00;;;11.70
54746;BMP180;40640;48.130;11.356;2023-03-29T20:30:48;95664.00;;;11.70
54746;BMP180;40640;48.130;11.356;2023-03-29T20:34:53;95658.00;;;11.80
54746;BMP180;40640;48.130;11.356;2023-03-29T20:38:56;95645.00;;;11.80
54746;BMP180;40640;48.130;11.356;2023-03-29T20:43:00;95647.00;;;11.90
54746;BMP180;40640;48.130;11.356;2023-03-29T20:47:03;95644.00;;;11.80
54746;BMP180;40640;48.130;11.356;2023-03-29T20:51:08;95642.00;;;11.70
54746;BMP180;40640;48.130;11.356;2023-03-29T20:55:11;95627.00;;;11.80
54746;BMP180;40640;48.130;11.356;2023-03-29T20:59:17;95630.00;;;11.60
54746;BMP180;40640;48.130;11.356;2023-03-29T21:03:20;95615.00;;;11.50
54746;BMP180;40640;48.130;11.356;2023-03-29T21:07:24;95607.00;;;11.60
54746;BMP180;40640;48.130;11.356;2023-03-29T21:11:29;95601.00;;;11.60
54746;BMP180;40640;48.130;11.356;2023-03-29T21:15:32;95586.00;;;11.60
54746;BMP180;40640;48.130;11.356;2023-03-29T21:19:36;95587.00;;;11.50
54746;BMP180;40640;48.130;11.356;2023-03-29T21:23:41;95579.00;;;11.60
54746;BMP180;40640;48.130;11.356;2023-03-29T21:27:44;95590.00;;;11.60
54746;BMP180;40640;48.130;11.356;2023-03-29T21:31:46;95581.00;;;11.60
54746;BMP180;40640;48.130;11.356;2023-03-29T21:35:49;95588.00;;;11.40
54746;BMP180;40640;48.130;11.356;2023-03-29T21:39:54;95578.00;;;11.40
54746;BMP180;40640;48.130;11.356;2023-03-29T21:43:57;95581.00;;;11.50
54746;BMP180;40640;48.130;11.356;2023-03-29T21:47:59;95573.00;;;11.50
54746;BMP180;40640;48.130;11.356;2023-03-29T21:52:02;95573.00;;;11.50
54746;BMP180;40640;48.130;11.356;2023-03-29T21:56:07;95587.00;;;11.50
54746;BMP180;40640;48.130;11.356;2023-03-29T22:00:11;95573.00;;;11.40
54746;BMP180;40640;48.130;11.356;2023-03-29T22:04:16;95582.00;;;11.30
54746;BMP180;40640;48.130;11.356;2023-03-29T22:08:37;95567.00;;;11.50
54746;BMP180;40640;48.130;11.356;2023-03-29T22:12:41;95557.00;;;11.40
54746;BMP180;40640;48.130;11.356;2023-03-29T22:16:44;95563.00;;;11.40
54746;BMP180;40640;48.130;11.356;2023-03-29T22:20:47;95557.00;;;11.40
54746;BMP180;40640;48.130;11.356;2023-03-29T22:24:50;95552.00;;;11.40
54746;BMP180;40640;48.130;11.356;2023-03-29T22:28:56;95556.00;;;11.40
54746;BMP180;40640;48.130;11.356;2023-03-29T22:32:59;95545.00;;;11.40
54746;BMP180;40640;48.130;11.356;2023-03-29T22:37:03;95543.00;;;11.40
54746;BMP180;40640;48.130;11.356;2023-03-29T22:41:05;95539.00;;;11.40
54746;BMP180;40640;48.130;11.356;2023-03-29T22:45:10;95531.00;;;11.40
54746;BMP180;40640;48.130;11.356;2023-03-29T22:49:13;95530.00;;;11.50
54746;BMP180;40640;48.130;11.356;2023-03-29T22:53:16;95514.00;;;11.50
54746;BMP180;40640;48.130;11.356;2023-03-29T22:57:19;95512.00;;;11.60
54746;BMP180;40640;48.130;11.356;2023-03-29T23:01:23;95512.00;;;11.50
54746;BMP180;40640;48.130;11.356;2023-03-29T23:05:26;95509.00;;;11.40
54746;BMP180;40640;48.130;11.356;2023-03-29T23:09:29;95502.00;;;11.50
54746;BMP180;40640;48.130;11.356;2023-03-29T23:13:32;95502.00;;;11.50
54746;BMP180;40640;48.130;11.356;2023-03-29T23:17:37;95500.00;;;11.40
54746;BMP180;40640;48.130;11.356;2023-03-29T23:21:40;95499.00;;;11.30
54746;BMP180;40640;48.130;11.356;2023-03-29T23:25:43;95494.00;;;11.40
54746;BMP180;40640;48.130;11.356;2023-03-29T23:29:47;95484.00;;;11.50
54746;BMP180;40640;48.130;11.356;2023-03-29T23:33:51;95478.00;;;11.50